sensor_id;sensor_type;location;lat;lon;timestamp;temperature;humidity
15099;DHT22;33900;53.640;9.942;2022-07-29T00:02:03;17.70;76.30
15099;DHT22;33900;53.640;9.942;2022-07-29T00:04:28;17.70;75.70
15099;DHT22;33900;53.640;9.942;2022-07-29T00:06:54;17.70;76.00
15099;DHT22;33900;53.640;9.942;2022-07-29T00:09:19;17.60;76.10
15099;DHT22;33900;53.640;9.942;2022-07-29T00:11:46;17.60;76.20
15099;DHT22;33900;53.640;9.942;2022-07-29T00:14:11;17.60;76.30
15099;DHT22;33900;53.640;9.942;2022-07-29T00:16:37;17.50;76.50
15099;DHT22;33900;53.640;9.942;2022-07-29T00:19:02;17.50;76.70
15099;DHT22;33900;53.640;9.942;2022-07-29T00:21:28;17.40;76.90
15099;DHT22;33900;53.640;9.942;2022-07-29T00:23:54;17.40;77.20
15099;DHT22;33900;53.640;9.942;2022-07-29T00:26:20;17.40;77.30
15099;DHT22;33900;53.640;9.942;2022-07-29T00:28:45;17.40;77.30
15099;DHT22;33900;53.640;9.942;2022-07-29T00:31:12;17.30;77.40
15099;DHT22;33900;53.640;9.942;2022-07-29T00:33:37;17.30;77.40
15099;DHT22;33900;53.640;9.942;2022-07-29T00:36:03;17.20;77.40
15099;DHT22;33900;53.640;9.942;2022-07-29T00:38:28;17.20;77.50
15099;DHT22;33900;53.640;9.942;2022-07-29T00:40:54;17.20;77.70
15099;DHT22;33900;53.640;9.942;2022-07-29T00:43:20;17.10;77.80
15099;DHT22;33900;53.640;9.942;2022-07-29T00:45:45;17.00;77.90
15099;DHT22;33900;53.640;9.942;2022-07-29T00:48:11;17.00;78.00
15099;DHT22;33900;53.640;9.942;2022-07-29T00:50:37;17.00;78.10
15099;DHT22;33900;53.640;9.942;2022-07-29T00:53:03;17.00;78.40
15099;DHT22;33900;53.640;9.942;2022-07-29T00:55:29;17.00;78.50
15099;DHT22;33900;53.640;9.942;2022-07-29T00:57:55;17.00;78.50
15099;DHT22;33900;53.640;9.942;2022-07-29T01:00:23;17.00;78.60
15099;DHT22;33900;53.640;9.942;2022-07-29T01:02:48;16.90;78.50
15099;DHT22;33900;53.640;9.942;2022-07-29T01:05:15;16.90;78.60
15099;DHT22;33900;53.640;9.942;2022-07-29T01:07:41;16.90;78.70
15099;DHT22;33900;53.640;9.942;2022-07-29T01:10:08;16.90;78.90
15099;DHT22;33900;53.640;9.942;2022-07-29T01:12:34;16.90;78.90
15099;DHT22;33900;53.640;9.942;2022-07-29T01:15:01;16.90;78.90
15099;DHT22;33900;53.640;9.942;2022-07-29T01:20:17;16.90;78.90
15099;DHT22;33900;53.640;9.942;2022-07-29T01:25:23;16.90;79.00
15099;DHT22;33900;53.640;9.942;2022-07-29T01:30:24;16.80;79.00
15099;DHT22;33900;53.640;9.942;2022-07-29T01:32:52;16.80;79.00
15099;DHT22;33900;53.640;9.942;2022-07-29T01:35:21;16.80;79.10
15099;DHT22;33900;53.640;9.942;2022-07-29T01:41:01;16.80;79.10
15099;DHT22;33900;53.640;9.942;2022-07-29T01:43:07;16.80;79.20
15099;DHT22;33900;53.640;9.942;2022-07-29T01:45:37;16.80;79.10
15099;DHT22;33900;53.640;9.942;2022-07-29T01:50:48;16.80;79.20
15099;DHT22;33900;53.640;9.942;2022-07-29T01:53:16;16.80;79.10
15099;DHT22;33900;53.640;9.942;2022-07-29T01:55:44;16.80;79.00
15099;DHT22;33900;53.640;9.942;2022-07-29T01:58:09;16.90;79.00
15099;DHT22;33900;53.640;9.942;2022-07-29T02:00:36;16.90;78.90
15099;DHT22;33900;53.640;9.942;2022-07-29T02:03:03;16.90;78.70
15099;DHT22;33900;53.640;9.942;2022-07-29T02:05:31;16.90;78.60
15099;DHT22;33900;53.640;9.942;2022-07-29T02:07:57;16.90;78.50
15099;DHT22;33900;53.640;9.942;2022-07-29T02:10:26;16.90;78.40
15099;DHT22;33900;53.640;9.942;2022-07-29T02:12:54;17.00;78.20
15099;DHT22;33900;53.640;9.942;2022-07-29T02:15:19;17.00;78.20
15099;DHT22;33900;53.640;9.942;2022-07-29T02:17:50;17.00;78.00
15099;DHT22;33900;53.640;9.942;2022-07-29T02:20:16;17.00;78.00
15099;DHT22;33900;53.640;9.942;2022-07-29T02:22:42;17.00;77.90
15099;DHT22;33900;53.640;9.942;2022-07-29T02:25:09;17.00;77.90
15099;DHT22;33900;53.640;9.942;2022-07-29T02:27:35;17.10;77.80
15099;DHT22;33900;53.640;9.942;2022-07-29T02:30:03;17.10;77.70
15099;DHT22;33900;53.640;9.942;2022-07-29T02:32:29;17.10;77.80
15099;DHT22;33900;53.640;9.942;2022-07-29T02:34:55;17.10;77.70
15099;DHT22;33900;53.640;9.942;2022-07-29T02:37:21;17.10;77.50
15099;DHT22;33900;53.640;9.942;2022-07-29T02:39:48;17.10;77.50
15099;DHT22;33900;53.640;9.942;2022-07-29T02:42:16;17.10;77.50
15099;DHT22;33900;53.640;9.942;2022-07-29T02:44:42;17.00;77.60
15099;DHT22;33900;53.640;9.942;2022-07-29T02:52:21;17.10;77.50
15099;DHT22;33900;53.640;9.942;2022-07-29T02:57:26;17.10;78.20
15099;DHT22;33900;53.640;9.942;2022-07-29T03:03:37;17.20;77.60
15099;DHT22;33900;53.640;9.942;2022-07-29T03:06:06;17.10;77.50
15099;DHT22;33900;53.640;9.942;2022-07-29T03:08:32;17.10;77.70
15099;DHT22;33900;53.640;9.942;2022-07-29T03:14:34;17.10;77.80
15099;DHT22;33900;53.640;9.942;2022-07-29T03:17:01;17.10;77.50
15099;DHT22;33900;53.640;9.942;2022-07-29T03:19:27;17.10;77.70
15099;DHT22;33900;53.640;9.942;2022-07-29T03:21:55;17.10;77.80
15099;DHT22;33900;53.640;9.942;2022-07-29T03:24:26;17.10;77.70
15099;DHT22;33900;53.640;9.942;2022-07-29T03:26:53;17.10;77.70
15099;DHT22;33900;53.640;9.942;2022-07-29T03:29:19;17.10;77.60
15099;DHT22;33900;53.640;9.942;2022-07-29T03:31:45;17.10;77.80
15099;DHT22;33900;53.640;9.942;2022-07-29T03:34:10;17.10;77.80
15099;DHT22;33900;53.640;9.942;2022-07-29T03:36:36;17.10;77.70
15099;DHT22;33900;53.640;9.942;2022-07-29T03:39:02;17.10;77.80
15099;DHT22;33900;53.640;9.942;2022-07-29T03:41:29;17.10;77.50
15099;DHT22;33900;53.640;9.942;2022-07-29T03:43:55;17.10;77.60
15099;DHT22;33900;53.640;9.942;2022-07-29T03:46:22;17.10;77.70
15099;DHT22;33900;53.640;9.942;2022-07-29T03:48:48;17.10;77.70
15099;DHT22;33900;53.640;9.942;2022-07-29T03:51:16;17.10;77.90
15099;DHT22;33900;53.640;9.942;2022-07-29T03:53:41;17.10;77.80
15099;DHT22;33900;53.640;9.942;2022-07-29T03:56:07;17.10;77.90
15099;DHT22;33900;53.640;9.942;2022-07-29T03:58:35;17.10;77.80
15099;DHT22;33900;53.640;9.942;2022-07-29T04:01:01;17.10;77.90
15099;DHT22;33900;53.640;9.942;2022-07-29T04:03:27;17.10;78.10
15099;DHT22;33900;53.640;9.942;2022-07-29T04:06:02;17.10;78.00
15099;DHT22;33900;53.640;9.942;2022-07-29T04:08:28;17.10;78.20
15099;DHT22;33900;53.640;9.942;2022-07-29T04:10:54;17.10;78.20
15099;DHT22;33900;53.640;9.942;2022-07-29T04:13:20;17.10;78.10
15099;DHT22;33900;53.640;9.942;2022-07-29T04:15:46;17.20;77.90
15099;DHT22;33900;53.640;9.942;2022-07-29T04:18:11;17.10;77.90
15099;DHT22;33900;53.640;9.942;2022-07-29T04:20:37;17.20;78.30
15099;DHT22;33900;53.640;9.942;2022-07-29T04:23:02;17.20;78.40
15099;DHT22;33900;53.640;9.942;2022-07-29T04:25:28;17.20;78.30
15099;DHT22;33900;53.640;9.942;2022-07-29T04:27:53;17.20;78.40
15099;DHT22;33900;53.640;9.942;2022-07-29T04:30:25;17.20;78.40
15099;DHT22;33900;53.640;9.942;2022-07-29T04:32:51;17.20;78.30
15099;DHT22;33900;53.640;9.942;2022-07-29T04:35:18;17.20;78.40
15099;DHT22;33900;53.640;9.942;2022-07-29T04:37:43;17.20;78.40
15099;DHT22;33900;53.640;9.942;2022-07-29T04:40:09;17.30;78.40
15099;DHT22;33900;53.640;9.942;2022-07-29T04:42:35;17.30;78.60
15099;DHT22;33900;53.640;9.942;2022-07-29T04:45:00;17.30;78.60
15099;DHT22;33900;53.640;9.942;2022-07-29T04:47:26;17.30;78.60
15099;DHT22;33900;53.640;9.942;2022-07-29T04:49:51;17.30;78.40
15099;DHT22;33900;53.640;9.942;2022-07-29T04:52:17;17.30;78.60
15099;DHT22;33900;53.640;9.942;2022-07-29T04:54:43;17.30;78.70
15099;DHT22;33900;53.640;9.942;2022-07-29T04:57:08;17.30;78.70
15099;DHT22;33900;53.640;9.942;2022-07-29T04:59:34;17.40;78.50
15099;DHT22;33900;53.640;9.942;2022-07-29T05:01:59;17.30;78.30
15099;DHT22;33900;53.640;9.942;2022-07-29T05:04:28;17.40;78.50
15099;DHT22;33900;53.640;9.942;2022-07-29T05:06:53;17.40;78.90
15099;DHT22;33900;53.640;9.942;2022-07-29T05:09:19;17.40;78.70
15099;DHT22;33900;53.640;9.942;2022-07-29T05:11:45;17.40;78.90
15099;DHT22;33900;53.640;9.942;2022-07-29T05:14:10;17.40;78.80
15099;DHT22;33900;53.640;9.942;2022-07-29T05:16:36;17.40;78.70
15099;DHT22;33900;53.640;9.942;2022-07-29T05:19:01;17.40;78.70
15099;DHT22;33900;53.640;9.942;2022-07-29T05:21:27;17.40;78.70
15099;DHT22;33900;53.640;9.942;2022-07-29T05:23:53;17.40;78.80
15099;DHT22;33900;53.640;9.942;2022-07-29T05:26:18;17.40;78.90
15099;DHT22;33900;53.640;9.942;2022-07-29T05:28:44;17.40;78.90
15099;DHT22;33900;53.640;9.942;2022-07-29T05:31:10;17.40;79.20
15099;DHT22;33900;53.640;9.942;2022-07-29T05:33:35;17.50;79.30
15099;DHT22;33900;53.640;9.942;2022-07-29T05:36:01;17.50;79.10
15099;DHT22;33900;53.640;9.942;2022-07-29T05:38:27;17.50;79.10
15099;DHT22;33900;53.640;9.942;2022-07-29T05:40:52;17.50;79.30
15099;DHT22;33900;53.640;9.942;2022-07-29T05:43:18;17.60;79.40
15099;DHT22;33900;53.640;9.942;2022-07-29T05:45:43;17.60;79.10
15099;DHT22;33900;53.640;9.942;2022-07-29T05:48:09;17.60;79.10
15099;DHT22;33900;53.640;9.942;2022-07-29T05:50:35;17.70;79.30
15099;DHT22;33900;53.640;9.942;2022-07-29T05:53:00;17.70;79.50
15099;DHT22;33900;53.640;9.942;2022-07-29T05:55:26;17.70;79.20
15099;DHT22;33900;53.640;9.942;2022-07-29T05:57:52;17.70;78.70
15099;DHT22;33900;53.640;9.942;2022-07-29T06:00:17;17.80;78.80
15099;DHT22;33900;53.640;9.942;2022-07-29T06:02:43;17.80;79.10
15099;DHT22;33900;53.640;9.942;2022-07-29T06:05:08;17.80;78.90
15099;DHT22;33900;53.640;9.942;2022-07-29T06:07:34;17.90;79.20
15099;DHT22;33900;53.640;9.942;2022-07-29T06:10:00;17.90;79.00
15099;DHT22;33900;53.640;9.942;2022-07-29T06:12:26;17.90;78.90
15099;DHT22;33900;53.640;9.942;2022-07-29T06:14:51;18.00;78.90
15099;DHT22;33900;53.640;9.942;2022-07-29T06:17:17;18.00;79.10
15099;DHT22;33900;53.640;9.942;2022-07-29T06:19:42;18.00;78.80
15099;DHT22;33900;53.640;9.942;2022-07-29T06:22:08;18.10;78.80
15099;DHT22;33900;53.640;9.942;2022-07-29T06:24:33;18.10;78.70
15099;DHT22;33900;53.640;9.942;2022-07-29T06:27:02;18.10;78.70
15099;DHT22;33900;53.640;9.942;2022-07-29T06:29:28;18.10;78.60
15099;DHT22;33900;53.640;9.942;2022-07-29T06:31:53;18.20;78.60
15099;DHT22;33900;53.640;9.942;2022-07-29T06:34:19;18.20;78.70
15099;DHT22;33900;53.640;9.942;2022-07-29T06:36:45;18.30;78.60
15099;DHT22;33900;53.640;9.942;2022-07-29T06:39:15;18.30;78.60
15099;DHT22;33900;53.640;9.942;2022-07-29T06:41:59;18.40;78.50
15099;DHT22;33900;53.640;9.942;2022-07-29T06:51:21;18.60;78.40
15099;DHT22;33900;53.640;9.942;2022-07-29T06:53:47;18.60;78.40
15099;DHT22;33900;53.640;9.942;2022-07-29T06:56:12;18.70;78.40
15099;DHT22;33900;53.640;9.942;2022-07-29T06:58:39;18.70;78.30
15099;DHT22;33900;53.640;9.942;2022-07-29T07:01:05;18.70;78.20
15099;DHT22;33900;53.640;9.942;2022-07-29T07:03:31;18.80;78.20
15099;DHT22;33900;53.640;9.942;2022-07-29T07:05:57;18.80;78.10
15099;DHT22;33900;53.640;9.942;2022-07-29T07:08:22;18.80;78.00
15099;DHT22;33900;53.640;9.942;2022-07-29T07:10:49;18.90;78.00
15099;DHT22;33900;53.640;9.942;2022-07-29T07:13:15;18.90;78.00
15099;DHT22;33900;53.640;9.942;2022-07-29T07:15:43;19.00;78.10
15099;DHT22;33900;53.640;9.942;2022-07-29T07:18:09;19.10;78.10
15099;DHT22;33900;53.640;9.942;2022-07-29T07:20:35;19.20;78.10
15099;DHT22;33900;53.640;9.942;2022-07-29T07:23:01;19.30;78.20
15099;DHT22;33900;53.640;9.942;2022-07-29T07:25:26;19.30;77.90
15099;DHT22;33900;53.640;9.942;2022-07-29T07:27:52;19.40;77.90
15099;DHT22;33900;53.640;9.942;2022-07-29T07:30:17;19.40;77.70
15099;DHT22;33900;53.640;9.942;2022-07-29T07:32:43;19.50;77.80
15099;DHT22;33900;53.640;9.942;2022-07-29T07:35:09;19.50;77.60
15099;DHT22;33900;53.640;9.942;2022-07-29T07:37:34;19.70;77.70
15099;DHT22;33900;53.640;9.942;2022-07-29T07:40:00;19.70;77.60
15099;DHT22;33900;53.640;9.942;2022-07-29T07:42:26;19.80;77.60
15099;DHT22;33900;53.640;9.942;2022-07-29T07:44:52;19.80;77.40
15099;DHT22;33900;53.640;9.942;2022-07-29T07:47:18;19.90;77.20
15099;DHT22;33900;53.640;9.942;2022-07-29T07:49:45;20.00;77.10
15099;DHT22;33900;53.640;9.942;2022-07-29T07:52:11;20.00;77.10
15099;DHT22;33900;53.640;9.942;2022-07-29T07:54:37;20.10;77.20
15099;DHT22;33900;53.640;9.942;2022-07-29T07:57:02;20.20;77.00
15099;DHT22;33900;53.640;9.942;2022-07-29T07:59:28;20.20;76.90
15099;DHT22;33900;53.640;9.942;2022-07-29T08:01:54;20.30;76.70
15099;DHT22;33900;53.640;9.942;2022-07-29T08:04:19;20.30;76.70
15099;DHT22;33900;53.640;9.942;2022-07-29T08:06:45;20.30;76.50
15099;DHT22;33900;53.640;9.942;2022-07-29T08:09:11;20.40;76.40
15099;DHT22;33900;53.640;9.942;2022-07-29T08:11:37;20.40;76.20
15099;DHT22;33900;53.640;9.942;2022-07-29T08:14:03;20.50;76.00
15099;DHT22;33900;53.640;9.942;2022-07-29T08:16:29;20.50;75.80
15099;DHT22;33900;53.640;9.942;2022-07-29T08:18:54;20.60;75.70
15099;DHT22;33900;53.640;9.942;2022-07-29T08:21:22;20.60;75.60
15099;DHT22;33900;53.640;9.942;2022-07-29T08:23:48;20.70;75.20
15099;DHT22;33900;53.640;9.942;2022-07-29T08:26:41;20.70;74.70
15099;DHT22;33900;53.640;9.942;2022-07-29T08:29:06;20.80;74.20
15099;DHT22;33900;53.640;9.942;2022-07-29T08:31:32;20.90;74.40
15099;DHT22;33900;53.640;9.942;2022-07-29T08:33:57;20.90;74.30
15099;DHT22;33900;53.640;9.942;2022-07-29T08:36:25;21.00;74.00
15099;DHT22;33900;53.640;9.942;2022-07-29T08:38:50;21.10;72.80
15099;DHT22;33900;53.640;9.942;2022-07-29T08:41:17;21.00;72.90
15099;DHT22;33900;53.640;9.942;2022-07-29T08:43:44;21.20;73.00
15099;DHT22;33900;53.640;9.942;2022-07-29T08:46:10;21.30;73.10
15099;DHT22;33900;53.640;9.942;2022-07-29T08:48:36;21.40;73.20
15099;DHT22;33900;53.640;9.942;2022-07-29T08:51:03;21.60;73.40
15099;DHT22;33900;53.640;9.942;2022-07-29T08:53:30;21.70;72.70
15099;DHT22;33900;53.640;9.942;2022-07-29T08:55:57;21.90;73.20
15099;DHT22;33900;53.640;9.942;2022-07-29T08:58:23;22.00;72.50
15099;DHT22;33900;53.640;9.942;2022-07-29T09:00:52;22.20;71.70
15099;DHT22;33900;53.640;9.942;2022-07-29T09:03:19;22.30;71.40
15099;DHT22;33900;53.640;9.942;2022-07-29T09:05:46;22.50;71.00
15099;DHT22;33900;53.640;9.942;2022-07-29T09:08:12;22.70;69.40
15099;DHT22;33900;53.640;9.942;2022-07-29T09:10:38;22.80;69.40
15099;DHT22;33900;53.640;9.942;2022-07-29T09:13:03;22.90;69.40
15099;DHT22;33900;53.640;9.942;2022-07-29T09:15:29;23.10;67.30
15099;DHT22;33900;53.640;9.942;2022-07-29T09:17:55;23.20;67.10
15099;DHT22;33900;53.640;9.942;2022-07-29T09:20:22;23.30;67.00
15099;DHT22;33900;53.640;9.942;2022-07-29T09:22:48;23.50;67.10
15099;DHT22;33900;53.640;9.942;2022-07-29T09:25:32;23.60;66.60
15099;DHT22;33900;53.640;9.942;2022-07-29T09:28:05;23.80;66.20
15099;DHT22;33900;53.640;9.942;2022-07-29T09:30:30;23.90;65.60
15099;DHT22;33900;53.640;9.942;2022-07-29T09:33:00;24.00;65.40
15099;DHT22;33900;53.640;9.942;2022-07-29T09:35:27;24.10;64.40
15099;DHT22;33900;53.640;9.942;2022-07-29T09:37:52;24.20;63.70
15099;DHT22;33900;53.640;9.942;2022-07-29T09:40:22;24.20;62.70
15099;DHT22;33900;53.640;9.942;2022-07-29T09:42:48;24.10;60.60
15099;DHT22;33900;53.640;9.942;2022-07-29T09:45:30;24.20;61.40
15099;DHT22;33900;53.640;9.942;2022-07-29T09:47:56;24.20;61.50
15099;DHT22;33900;53.640;9.942;2022-07-29T09:50:41;24.20;60.70
15099;DHT22;33900;53.640;9.942;2022-07-29T09:53:07;24.10;61.30
15099;DHT22;33900;53.640;9.942;2022-07-29T09:55:45;24.10;60.50
15099;DHT22;33900;53.640;9.942;2022-07-29T09:58:15;24.10;60.60
15099;DHT22;33900;53.640;9.942;2022-07-29T10:00:42;24.00;60.70
15099;DHT22;33900;53.640;9.942;2022-07-29T10:03:08;24.00;59.70
15099;DHT22;33900;53.640;9.942;2022-07-29T10:05:34;24.00;59.90
15099;DHT22;33900;53.640;9.942;2022-07-29T10:07:59;23.90;59.20
15099;DHT22;33900;53.640;9.942;2022-07-29T10:10:28;23.90;59.20
15099;DHT22;33900;53.640;9.942;2022-07-29T10:15:20;23.80;59.40
15099;DHT22;33900;53.640;9.942;2022-07-29T10:17:46;23.80;60.00
15099;DHT22;33900;53.640;9.942;2022-07-29T10:20:13;23.80;60.10
15099;DHT22;33900;53.640;9.942;2022-07-29T10:22:39;23.80;60.10
15099;DHT22;33900;53.640;9.942;2022-07-29T10:25:05;23.80;60.50
15099;DHT22;33900;53.640;9.942;2022-07-29T10:27:31;23.80;60.50
15099;DHT22;33900;53.640;9.942;2022-07-29T10:29:57;23.70;60.60
15099;DHT22;33900;53.640;9.942;2022-07-29T10:32:30;23.70;61.20
15099;DHT22;33900;53.640;9.942;2022-07-29T10:35:33;23.70;60.10
15099;DHT22;33900;53.640;9.942;2022-07-29T10:43:30;23.60;60.50
15099;DHT22;33900;53.640;9.942;2022-07-29T10:45:59;23.60;60.80
15099;DHT22;33900;53.640;9.942;2022-07-29T10:48:25;23.60;60.90
15099;DHT22;33900;53.640;9.942;2022-07-29T10:50:55;23.50;60.50
15099;DHT22;33900;53.640;9.942;2022-07-29T10:53:21;23.50;60.60
15099;DHT22;33900;53.640;9.942;2022-07-29T10:55:47;23.50;60.20
15099;DHT22;33900;53.640;9.942;2022-07-29T10:58:16;23.50;60.50
15099;DHT22;33900;53.640;9.942;2022-07-29T11:00:42;23.50;60.00
15099;DHT22;33900;53.640;9.942;2022-07-29T11:03:07;23.50;59.80
15099;DHT22;33900;53.640;9.942;2022-07-29T11:08:19;23.40;59.60
15099;DHT22;33900;53.640;9.942;2022-07-29T11:10:47;23.40;59.40
15099;DHT22;33900;53.640;9.942;2022-07-29T11:13:28;23.40;59.00
15099;DHT22;33900;53.640;9.942;2022-07-29T11:16:00;23.40;59.30
15099;DHT22;33900;53.640;9.942;2022-07-29T11:18:26;23.40;58.90
15099;DHT22;33900;53.640;9.942;2022-07-29T11:20:51;23.40;58.60
15099;DHT22;33900;53.640;9.942;2022-07-29T11:26:30;23.40;58.60
15099;DHT22;33900;53.640;9.942;2022-07-29T11:28:33;23.40;58.60
15099;DHT22;33900;53.640;9.942;2022-07-29T11:30:59;23.50;59.60
15099;DHT22;33900;53.640;9.942;2022-07-29T11:33:29;23.50;58.70
15099;DHT22;33900;53.640;9.942;2022-07-29T11:36:08;23.50;58.80
15099;DHT22;33900;53.640;9.942;2022-07-29T11:38:34;23.60;58.80
15099;DHT22;33900;53.640;9.942;2022-07-29T11:46:13;23.70;58.40
15099;DHT22;33900;53.640;9.942;2022-07-29T11:48:41;23.70;58.20
15099;DHT22;33900;53.640;9.942;2022-07-29T11:51:11;23.90;58.20
15099;DHT22;33900;53.640;9.942;2022-07-29T11:53:38;23.90;58.30
15099;DHT22;33900;53.640;9.942;2022-07-29T11:56:04;24.00;58.10
15099;DHT22;33900;53.640;9.942;2022-07-29T11:58:33;24.10;58.20
15099;DHT22;33900;53.640;9.942;2022-07-29T12:00:59;24.20;57.80
15099;DHT22;33900;53.640;9.942;2022-07-29T12:03:25;24.20;57.50
15099;DHT22;33900;53.640;9.942;2022-07-29T12:05:51;24.30;57.40
15099;DHT22;33900;53.640;9.942;2022-07-29T12:08:18;24.40;56.80
15099;DHT22;33900;53.640;9.942;2022-07-29T12:10:45;24.40;56.60
15099;DHT22;33900;53.640;9.942;2022-07-29T12:13:11;24.50;56.80
15099;DHT22;33900;53.640;9.942;2022-07-29T12:15:37;24.50;56.00
15099;DHT22;33900;53.640;9.942;2022-07-29T12:18:18;24.50;56.00
15099;DHT22;33900;53.640;9.942;2022-07-29T12:20:46;24.50;55.50
15099;DHT22;33900;53.640;9.942;2022-07-29T12:23:12;24.60;55.50
15099;DHT22;33900;53.640;9.942;2022-07-29T12:25:38;24.60;54.80
15099;DHT22;33900;53.640;9.942;2022-07-29T12:28:04;24.60;54.30
15099;DHT22;33900;53.640;9.942;2022-07-29T12:30:34;24.60;54.30
15099;DHT22;33900;53.640;9.942;2022-07-29T12:33:00;24.70;54.00
15099;DHT22;33900;53.640;9.942;2022-07-29T12:35:26;24.90;54.00
15099;DHT22;33900;53.640;9.942;2022-07-29T12:37:51;25.00;53.50
15099;DHT22;33900;53.640;9.942;2022-07-29T12:40:18;25.20;54.30
15099;DHT22;33900;53.640;9.942;2022-07-29T12:45:28;25.50;51.00
15099;DHT22;33900;53.640;9.942;2022-07-29T12:47:54;25.60;51.10
15099;DHT22;33900;53.640;9.942;2022-07-29T12:50:20;25.80;51.80
15099;DHT22;33900;53.640;9.942;2022-07-29T12:52:45;25.90;51.10
15099;DHT22;33900;53.640;9.942;2022-07-29T12:55:11;26.00;50.50
15099;DHT22;33900;53.640;9.942;2022-07-29T13:00:13;26.10;49.50
15099;DHT22;33900;53.640;9.942;2022-07-29T13:02:39;26.10;49.50
15099;DHT22;33900;53.640;9.942;2022-07-29T13:05:06;26.20;50.00
15099;DHT22;33900;53.640;9.942;2022-07-29T13:07:34;26.30;49.90
15099;DHT22;33900;53.640;9.942;2022-07-29T13:10:19;26.40;49.50
15099;DHT22;33900;53.640;9.942;2022-07-29T13:13:01;26.40;49.20
15099;DHT22;33900;53.640;9.942;2022-07-29T13:15:27;26.60;48.60
15099;DHT22;33900;53.640;9.942;2022-07-29T13:17:52;26.60;49.00
15099;DHT22;33900;53.640;9.942;2022-07-29T13:20:18;26.70;50.00
15099;DHT22;33900;53.640;9.942;2022-07-29T13:22:47;26.70;50.50
15099;DHT22;33900;53.640;9.942;2022-07-29T13:25:12;26.80;51.10
15099;DHT22;33900;53.640;9.942;2022-07-29T13:27:38;26.70;50.90
15099;DHT22;33900;53.640;9.942;2022-07-29T13:30:06;26.70;50.70
15099;DHT22;33900;53.640;9.942;2022-07-29T13:32:32;26.70;51.00
15099;DHT22;33900;53.640;9.942;2022-07-29T13:35:00;26.70;51.60
15099;DHT22;33900;53.640;9.942;2022-07-29T13:37:27;26.80;52.20
15099;DHT22;33900;53.640;9.942;2022-07-29T13:39:55;26.90;52.30
15099;DHT22;33900;53.640;9.942;2022-07-29T13:42:21;26.90;52.30
15099;DHT22;33900;53.640;9.942;2022-07-29T13:44:47;26.90;52.60
15099;DHT22;33900;53.640;9.942;2022-07-29T13:47:16;27.00;52.30
15099;DHT22;33900;53.640;9.942;2022-07-29T13:49:41;27.00;52.10
15099;DHT22;33900;53.640;9.942;2022-07-29T13:52:07;26.90;52.30
15099;DHT22;33900;53.640;9.942;2022-07-29T13:54:33;26.80;52.00
15099;DHT22;33900;53.640;9.942;2022-07-29T13:57:01;26.80;52.10
15099;DHT22;33900;53.640;9.942;2022-07-29T13:59:26;26.70;52.30
15099;DHT22;33900;53.640;9.942;2022-07-29T14:01:52;26.70;52.80
15099;DHT22;33900;53.640;9.942;2022-07-29T14:04:18;26.60;52.80
15099;DHT22;33900;53.640;9.942;2022-07-29T14:06:43;26.50;52.80
15099;DHT22;33900;53.640;9.942;2022-07-29T14:09:09;26.50;52.90
15099;DHT22;33900;53.640;9.942;2022-07-29T14:11:35;26.40;52.80
15099;DHT22;33900;53.640;9.942;2022-07-29T14:14:01;26.40;53.20
15099;DHT22;33900;53.640;9.942;2022-07-29T14:16:27;26.40;53.60
15099;DHT22;33900;53.640;9.942;2022-07-29T14:18:52;26.30;53.50
15099;DHT22;33900;53.640;9.942;2022-07-29T14:21:18;26.30;53.80
15099;DHT22;33900;53.640;9.942;2022-07-29T14:23:43;26.30;53.80
15099;DHT22;33900;53.640;9.942;2022-07-29T14:26:09;26.30;53.80
15099;DHT22;33900;53.640;9.942;2022-07-29T14:28:35;26.20;53.80
15099;DHT22;33900;53.640;9.942;2022-07-29T14:31:00;26.20;53.60
15099;DHT22;33900;53.640;9.942;2022-07-29T14:33:26;26.20;53.30
15099;DHT22;33900;53.640;9.942;2022-07-29T14:35:52;26.10;53.30
15099;DHT22;33900;53.640;9.942;2022-07-29T14:38:17;26.10;53.30
15099;DHT22;33900;53.640;9.942;2022-07-29T14:40:43;26.00;53.60
15099;DHT22;33900;53.640;9.942;2022-07-29T14:43:08;25.90;53.00
15099;DHT22;33900;53.640;9.942;2022-07-29T14:45:34;25.90;53.20
15099;DHT22;33900;53.640;9.942;2022-07-29T14:48:00;25.90;53.60
15099;DHT22;33900;53.640;9.942;2022-07-29T14:50:25;25.80;53.90
15099;DHT22;33900;53.640;9.942;2022-07-29T14:52:52;25.80;54.20
15099;DHT22;33900;53.640;9.942;2022-07-29T14:55:17;25.80;54.60
15099;DHT22;33900;53.640;9.942;2022-07-29T14:57:43;25.80;54.50
15099;DHT22;33900;53.640;9.942;2022-07-29T15:00:09;25.70;54.70
15099;DHT22;33900;53.640;9.942;2022-07-29T15:02:35;25.80;55.00
15099;DHT22;33900;53.640;9.942;2022-07-29T15:05:00;25.80;55.10
15099;DHT22;33900;53.640;9.942;2022-07-29T15:07:26;25.70;54.70
15099;DHT22;33900;53.640;9.942;2022-07-29T15:09:52;25.80;54.60
15099;DHT22;33900;53.640;9.942;2022-07-29T15:12:17;25.80;54.70
15099;DHT22;33900;53.640;9.942;2022-07-29T15:14:43;25.80;54.90
15099;DHT22;33900;53.640;9.942;2022-07-29T15:17:10;25.90;55.10
15099;DHT22;33900;53.640;9.942;2022-07-29T15:19:36;26.00;55.60
15099;DHT22;33900;53.640;9.942;2022-07-29T15:22:02;26.00;55.00
15099;DHT22;33900;53.640;9.942;2022-07-29T15:24:30;26.00;54.80
15099;DHT22;33900;53.640;9.942;2022-07-29T15:26:55;26.00;55.00
15099;DHT22;33900;53.640;9.942;2022-07-29T15:29:21;26.10;55.40
15099;DHT22;33900;53.640;9.942;2022-07-29T15:31:47;26.00;55.20
15099;DHT22;33900;53.640;9.942;2022-07-29T15:34:13;26.10;55.40
15099;DHT22;33900;53.640;9.942;2022-07-29T15:36:38;26.10;55.30
15099;DHT22;33900;53.640;9.942;2022-07-29T15:39:04;26.10;54.90
15099;DHT22;33900;53.640;9.942;2022-07-29T15:41:30;26.20;55.20
15099;DHT22;33900;53.640;9.942;2022-07-29T15:43:56;26.20;55.20
15099;DHT22;33900;53.640;9.942;2022-07-29T15:46:22;26.30;55.00
15099;DHT22;33900;53.640;9.942;2022-07-29T15:49:06;26.30;54.30
15099;DHT22;33900;53.640;9.942;2022-07-29T15:51:32;26.30;53.70
15099;DHT22;33900;53.640;9.942;2022-07-29T15:54:00;26.30;53.60
15099;DHT22;33900;53.640;9.942;2022-07-29T15:56:25;26.40;53.60
15099;DHT22;33900;53.640;9.942;2022-07-29T15:58:52;26.40;53.50
15099;DHT22;33900;53.640;9.942;2022-07-29T16:01:17;26.40;53.50
15099;DHT22;33900;53.640;9.942;2022-07-29T16:03:43;26.40;53.70
15099;DHT22;33900;53.640;9.942;2022-07-29T16:06:14;26.40;54.20
15099;DHT22;33900;53.640;9.942;2022-07-29T16:08:40;26.40;54.40
15099;DHT22;33900;53.640;9.942;2022-07-29T16:11:05;26.40;54.50
15099;DHT22;33900;53.640;9.942;2022-07-29T16:13:31;26.40;54.40
15099;DHT22;33900;53.640;9.942;2022-07-29T16:15:56;26.30;54.60
15099;DHT22;33900;53.640;9.942;2022-07-29T16:18:22;26.30;55.00
15099;DHT22;33900;53.640;9.942;2022-07-29T16:20:48;26.30;55.10
15099;DHT22;33900;53.640;9.942;2022-07-29T16:23:13;26.30;54.90
15099;DHT22;33900;53.640;9.942;2022-07-29T16:25:40;26.20;54.40
15099;DHT22;33900;53.640;9.942;2022-07-29T16:28:06;26.20;55.00